createdAt,value
2019-04-26T00:01:15.806Z,51.00
2019-04-26T00:03:47.017Z,51.00
2019-04-26T00:06:17.041Z,51.10
2019-04-26T00:09:09.405Z,51.10
2019-04-26T00:11:58.348Z,51.10
2019-04-26T00:14:38.382Z,51.10
2019-04-26T00:17:24.409Z,51.10
2019-04-26T00:19:54.293Z,51.10
2019-04-26T00:22:24.114Z,51.20
2019-04-26T00:24:53.788Z,51.20
2019-04-26T00:27:23.472Z,51.10
2019-04-26T00:29:54.760Z,51.20
2019-04-26T00:32:24.484Z,51.10
2019-04-26T00:34:54.220Z,51.20
2019-04-26T00:37:24.002Z,51.10
2019-04-26T00:39:53.621Z,51.10
2019-04-26T00:42:23.326Z,51.10
2019-04-26T00:44:53.086Z,51.10
2019-04-26T00:47:24.406Z,51.70
2019-04-26T00:49:54.154Z,51.70
2019-04-26T00:52:23.961Z,51.00
2019-04-26T00:54:53.639Z,51.10
2019-04-26T00:57:24.451Z,51.10
2019-04-26T00:59:54.764Z,51.00
2019-04-26T01:02:36.456Z,51.00
2019-04-26T01:05:06.200Z,51.10
2019-04-26T01:07:36.002Z,51.00
2019-04-26T01:10:05.739Z,51.10
2019-04-26T01:12:35.530Z,51.20
2019-04-26T01:15:05.886Z,51.10
2019-04-26T01:17:37.275Z,51.20
2019-04-26T01:20:07.176Z,51.20
2019-04-26T01:22:44.773Z,51.20
2019-04-26T01:25:45.123Z,51.20
2019-04-26T01:28:19.749Z,51.10
2019-04-26T01:30:49.602Z,51.10
2019-04-26T01:33:20.135Z,51.10
2019-04-26T01:35:50.759Z,51.10
2019-04-26T01:38:21.726Z,51.00
2019-04-26T01:40:54.842Z,51.10
2019-04-26T01:43:43.681Z,51.20
2019-04-26T01:46:18.281Z,51.20
2019-04-26T01:48:58.746Z,51.10
2019-04-26T01:51:36.643Z,51.10
2019-04-26T01:54:06.561Z,51.10
2019-04-26T01:56:36.617Z,51.10
2019-04-26T01:59:06.746Z,51.00
2019-04-26T02:02:07.895Z,51.00
2019-04-26T02:04:40.792Z,51.00
2019-04-26T02:07:15.460Z,51.00
2019-04-26T02:09:45.155Z,51.00
2019-04-26T02:12:14.900Z,51.00
2019-04-26T02:14:44.615Z,51.00
2019-04-26T02:17:14.410Z,51.00
2019-04-26T02:19:44.264Z,51.00
2019-04-26T02:22:40.794Z,51.00
2019-04-26T02:25:12.598Z,51.10
2019-04-26T02:27:42.538Z,51.00
2019-04-26T02:30:12.335Z,51.10
2019-04-26T02:32:42.147Z,51.10
2019-04-26T02:35:12.237Z,51.00
2019-04-26T02:37:43.962Z,51.00
2019-04-26T02:40:15.136Z,51.00
2019-04-26T02:42:44.921Z,51.10
2019-04-26T02:46:00.409Z,51.20
2019-04-26T02:48:57.043Z,51.10
2019-04-26T02:51:34.602Z,51.20
2019-04-26T02:54:14.188Z,51.10
2019-04-26T02:56:51.241Z,51.20
2019-04-26T02:59:54.083Z,51.20
2019-04-26T03:02:30.225Z,51.10
2019-04-26T03:05:01.874Z,51.00
2019-04-26T03:07:56.387Z,51.10
2019-04-26T03:10:35.879Z,51.10
2019-04-26T03:13:05.138Z,51.30
2019-04-26T03:16:03.203Z,51.30
2019-04-26T03:23:05.997Z,51.20
2019-04-26T03:25:53.251Z,51.20
2019-04-26T03:28:43.724Z,51.40
2019-04-26T03:31:42.862Z,51.20
2019-04-26T03:34:26.641Z,51.40
2019-04-26T03:38:05.012Z,51.20
2019-04-26T03:40:51.937Z,51.20
2019-04-26T03:44:09.717Z,51.30
2019-04-26T03:47:06.723Z,51.30
2019-04-26T03:50:12.766Z,51.30
2019-04-26T03:53:55.616Z,51.20
2019-04-26T03:57:24.312Z,51.30
2019-04-26T04:00:32.682Z,51.30
2019-04-26T04:03:39.268Z,51.30
2019-04-26T04:06:09.691Z,51.20
2019-04-26T04:09:29.713Z,51.40
2019-04-26T04:12:12.359Z,51.30
2019-04-26T04:15:15.259Z,51.10
2019-04-26T04:17:52.245Z,51.10
2019-04-26T04:21:01.978Z,51.30
2019-04-26T04:24:13.994Z,51.20
2019-04-26T04:27:11.499Z,51.30
2019-04-26T04:30:34.312Z,51.20
2019-04-26T04:37:05.555Z,51.30
2019-04-26T04:40:30.757Z,51.30
2019-04-26T04:43:47.084Z,51.40
2019-04-26T04:47:30.730Z,51.40
2019-04-26T04:50:26.976Z,51.40
2019-04-26T04:53:49.601Z,51.40
2019-04-26T04:57:15.543Z,51.50
2019-04-26T05:00:21.407Z,51.40
2019-04-26T05:03:28.382Z,51.40
2019-04-26T05:06:25.558Z,51.40
2019-04-26T05:09:18.517Z,51.40
2019-04-26T05:13:00.196Z,51.40
2019-04-26T05:16:09.616Z,51.40
2019-04-26T05:19:28.883Z,51.40
2019-04-26T05:22:40.055Z,51.50
2019-04-26T05:25:57.101Z,51.50
2019-04-26T05:28:49.590Z,51.20
2019-04-26T05:31:51.195Z,51.30
2019-04-26T05:34:44.442Z,51.30
2019-04-26T05:37:39.499Z,51.90
2019-04-26T05:40:47.032Z,51.30
2019-04-26T05:43:53.915Z,51.30
2019-04-26T05:47:06.802Z,51.30
2019-04-26T05:50:39.243Z,51.20
2019-04-26T05:54:15.398Z,51.30
2019-04-26T05:57:50.976Z,51.30
2019-04-26T06:04:19.863Z,51.30
2019-04-26T06:07:07.797Z,51.40
2019-04-26T06:10:21.116Z,51.40
2019-04-26T06:13:52.190Z,51.30
2019-04-26T06:17:08.036Z,51.30
2019-04-26T06:20:23.193Z,51.20
2019-04-26T06:23:10.208Z,51.20
2019-04-26T06:25:57.127Z,51.10
2019-04-26T06:29:07.877Z,51.10
2019-04-26T06:31:55.929Z,51.10
2019-04-26T06:35:20.229Z,51.10
2019-04-26T06:39:10.436Z,51.00
2019-04-26T06:42:06.929Z,51.20
2019-04-26T06:46:10.745Z,51.20
2019-04-26T06:49:26.258Z,51.20
2019-04-26T06:52:04.991Z,51.30
2019-04-26T06:54:52.335Z,51.20
2019-04-26T06:58:07.351Z,51.10
2019-04-26T07:01:22.538Z,51.00
2019-04-26T07:04:28.256Z,51.20
2019-04-26T07:07:23.295Z,51.10
2019-04-26T07:10:56.908Z,51.20
2019-04-26T07:13:59.281Z,51.10
2019-04-26T07:17:00.757Z,51.20
2019-04-26T07:20:12.742Z,51.20
2019-04-26T07:23:31.658Z,51.20
2019-04-26T07:26:50.605Z,51.30
2019-04-26T07:30:07.611Z,51.30
2019-04-26T07:33:51.220Z,51.30
2019-04-26T07:37:09.879Z,51.30
2019-04-26T07:40:54.487Z,51.30
2019-04-26T07:44:11.857Z,51.30
2019-04-26T07:47:08.550Z,51.40
2019-04-26T07:50:21.939Z,51.30
2019-04-26T07:53:30.720Z,51.20
2019-04-26T07:56:20.036Z,51.20
2019-04-26T07:59:25.407Z,51.10
2019-04-26T08:02:54.713Z,51.10
2019-04-26T08:05:54.042Z,51.20
2019-04-26T08:08:28.985Z,51.10
2019-04-26T08:11:10.744Z,51.10
2019-04-26T08:14:15.160Z,51.00
2019-04-26T08:17:26.354Z,50.90
2019-04-26T08:21:52.094Z,50.90
2019-04-26T08:24:30.854Z,50.80
2019-04-26T08:27:26.025Z,50.90
2019-04-26T08:30:10.269Z,50.90
2019-04-26T08:32:41.612Z,50.90
2019-04-26T08:35:30.458Z,50.80
2019-04-26T08:38:12.879Z,50.90
2019-04-26T08:40:38.317Z,50.80
2019-04-26T08:43:36.205Z,50.70
2019-04-26T08:46:24.972Z,50.60
2019-04-26T08:49:24.867Z,50.70
2019-04-26T08:51:55.965Z,50.70
2019-04-26T08:54:29.132Z,50.70
2019-04-26T08:57:03.944Z,50.80
2019-04-26T08:59:39.756Z,50.70
2019-04-26T09:02:30.305Z,50.60
2019-04-26T09:05:29.349Z,50.60
2019-04-26T09:08:00.078Z,50.60
2019-04-26T09:10:30.576Z,50.60
2019-04-26T09:13:00.218Z,50.60
2019-04-26T09:16:01.706Z,50.70
2019-04-26T09:18:42.494Z,50.60
2019-04-26T09:21:02.870Z,50.70
2019-04-26T09:24:08.420Z,50.70
2019-04-26T09:27:09.692Z,49.50
2019-04-26T09:29:47.338Z,50.60
2019-04-26T09:32:20.430Z,50.70
2019-04-26T09:34:51.780Z,50.80
2019-04-26T09:37:21.541Z,50.60
2019-04-26T09:39:51.235Z,50.70
2019-04-26T09:42:28.497Z,50.60
2019-04-26T09:45:05.186Z,50.60
2019-04-26T09:47:44.141Z,50.60
2019-04-26T09:50:35.705Z,50.60
2019-04-26T09:53:06.310Z,50.60
2019-04-26T09:55:36.088Z,50.50
2019-04-26T09:58:08.591Z,50.50
2019-04-26T10:00:37.873Z,50.40
2019-04-26T10:03:09.487Z,50.30
2019-04-26T10:05:38.817Z,50.30
2019-04-26T10:08:12.767Z,50.50
2019-04-26T10:10:39.987Z,50.50
2019-04-26T10:13:34.961Z,50.40
2019-04-26T10:16:33.507Z,50.40
2019-04-26T10:19:23.866Z,50.40
2019-04-26T10:21:53.485Z,50.60
2019-04-26T10:24:23.198Z,50.50
2019-04-26T10:26:55.388Z,50.40
2019-04-26T10:29:25.688Z,50.30
2019-04-26T10:31:55.444Z,50.40
2019-04-26T10:34:25.210Z,50.40
2019-04-26T10:36:56.945Z,50.40
2019-04-26T10:39:28.569Z,50.40
2019-04-26T10:41:57.676Z,50.30
2019-04-26T10:44:27.423Z,50.90
2019-04-26T10:46:59.891Z,50.40
2019-04-26T10:49:45.362Z,50.30
2019-04-26T10:52:25.400Z,50.40
2019-04-26T10:55:16.080Z,50.40
2019-04-26T10:57:46.905Z,50.40
2019-04-26T11:00:25.071Z,50.40
2019-04-26T11:02:54.861Z,50.40
2019-04-26T11:05:24.642Z,50.30
2019-04-26T11:07:54.341Z,50.40
2019-04-26T11:10:24.461Z,50.30
2019-04-26T11:12:54.726Z,50.40
2019-04-26T11:15:24.370Z,50.30
2019-04-26T11:17:54.015Z,50.30
2019-04-26T11:20:23.814Z,50.30
2019-04-26T11:22:53.599Z,50.30
2019-04-26T11:25:24.597Z,51.00
2019-04-26T11:27:54.938Z,50.30
2019-04-26T11:30:24.581Z,50.20
2019-04-26T11:32:54.370Z,50.30
2019-04-26T11:35:24.278Z,50.20
2019-04-26T11:37:55.316Z,50.80
2019-04-26T11:40:27.916Z,50.20
2019-04-26T11:42:57.520Z,50.20
2019-04-26T11:45:27.258Z,50.20
2019-04-26T11:47:56.869Z,50.30
2019-04-26T11:50:26.606Z,50.30
2019-04-26T11:52:56.245Z,50.30
2019-04-26T11:55:29.973Z,50.10
2019-04-26T11:57:57.229Z,50.70
2019-04-26T12:00:41.252Z,50.10
2019-04-26T12:03:10.894Z,50.50
2019-04-26T12:06:07.275Z,50.10
2019-04-26T12:08:48.964Z,50.20
2019-04-26T12:11:25.701Z,50.20
2019-04-26T12:13:50.015Z,50.20
2019-04-26T12:16:20.468Z,50.10
2019-04-26T12:18:50.772Z,50.10
2019-04-26T12:21:20.468Z,50.20
2019-04-26T12:23:51.398Z,50.10
2019-04-26T12:26:22.988Z,50.20
2019-04-26T12:28:52.830Z,50.10
2019-04-26T12:31:22.442Z,50.10
2019-04-26T12:33:52.184Z,50.10
2019-04-26T12:36:21.789Z,50.10
2019-04-26T12:38:51.511Z,50.10
2019-04-26T12:41:39.238Z,50.10
2019-04-26T12:43:54.594Z,50.10
2019-04-26T12:46:36.156Z,50.20
2019-04-26T12:49:05.852Z,50.10
2019-04-26T12:51:38.179Z,50.20
2019-04-26T12:54:08.219Z,50.20
2019-04-26T12:56:38.871Z,50.20
2019-04-26T12:59:08.474Z,50.10
2019-04-26T13:01:38.147Z,50.10
2019-04-26T13:04:07.959Z,50.10
2019-04-26T13:06:43.196Z,50.10
2019-04-26T13:09:14.906Z,49.90
2019-04-26T13:11:56.540Z,50.10
2019-04-26T13:14:54.117Z,50.10
2019-04-26T13:17:31.318Z,50.10
2019-04-26T13:20:00.072Z,50.20
2019-04-26T13:22:31.945Z,50.10
2019-04-26T13:25:00.951Z,50.10
2019-04-26T13:27:30.594Z,50.10
2019-04-26T13:30:02.573Z,50.00
2019-04-26T13:32:33.155Z,50.00
2019-04-26T13:35:02.783Z,50.00
2019-04-26T13:37:35.678Z,50.00
2019-04-26T13:40:03.712Z,50.00
2019-04-26T13:42:33.362Z,50.00
2019-04-26T13:45:23.636Z,50.10
2019-04-26T13:48:26.378Z,50.00
2019-04-26T13:51:02.366Z,50.00
2019-04-26T13:53:32.368Z,50.10
2019-04-26T13:56:03.346Z,50.00
2019-04-26T13:58:33.083Z,50.10
2019-04-26T14:01:04.372Z,50.10
2019-04-26T14:03:34.030Z,50.10
2019-04-26T14:06:03.625Z,50.10
2019-04-26T14:08:33.242Z,50.00
2019-04-26T14:11:02.923Z,50.00
2019-04-26T14:13:32.574Z,50.00
2019-04-26T14:16:02.423Z,50.00
2019-04-26T14:18:34.626Z,50.10
2019-04-26T14:21:03.569Z,50.00
2019-04-26T14:23:54.494Z,50.00
2019-04-26T14:26:52.029Z,50.10
2019-04-26T14:29:21.687Z,50.10
2019-04-26T14:31:53.012Z,50.10
2019-04-26T14:34:22.675Z,50.10
2019-04-26T14:37:05.568Z,50.10
2019-04-26T14:39:35.002Z,50.00
2019-04-26T14:41:57.348Z,50.00
2019-04-26T14:44:27.196Z,50.00
2019-04-26T14:46:58.005Z,50.00
2019-04-26T14:49:38.603Z,50.10
2019-04-26T14:51:59.662Z,50.00
2019-04-26T14:54:29.277Z,50.10
2019-04-26T14:57:07.677Z,50.70
2019-04-26T14:59:48.533Z,50.00
2019-04-26T15:02:37.273Z,50.00
2019-04-26T15:05:22.203Z,50.10
2019-04-26T15:07:53.840Z,50.10
2019-04-26T15:10:43.503Z,50.10
2019-04-26T15:13:17.324Z,50.10
2019-04-26T15:15:37.334Z,50.00
2019-04-26T15:18:06.924Z,50.00
2019-04-26T15:20:36.527Z,50.00
2019-04-26T15:23:07.666Z,50.00
2019-04-26T15:25:37.295Z,50.00
2019-04-26T15:28:11.216Z,50.00
2019-04-26T15:30:43.336Z,49.70
2019-04-26T15:33:12.711Z,49.50
2019-04-26T15:35:43.913Z,49.30
2019-04-26T15:38:13.575Z,49.30
2019-04-26T15:41:05.480Z,49.20
2019-04-26T15:43:59.961Z,49.20
2019-04-26T15:46:48.568Z,49.30
2019-04-26T15:49:47.177Z,49.40
2019-04-26T15:52:17.068Z,49.40
2019-04-26T15:54:46.781Z,49.40
2019-04-26T15:57:18.285Z,49.40
2019-04-26T15:59:48.023Z,49.50
2019-04-26T16:02:18.446Z,49.60
2019-04-26T16:04:51.335Z,49.50
2019-04-26T16:07:27.375Z,49.50
2019-04-26T16:09:55.962Z,49.60
2019-04-26T16:12:25.807Z,49.60
2019-04-26T16:14:55.094Z,49.50
2019-04-26T16:17:25.953Z,49.60
2019-04-26T16:20:00.211Z,49.50
2019-04-26T16:22:30.004Z,49.60
2019-04-26T16:25:04.054Z,49.60
2019-04-26T16:27:34.603Z,49.50
2019-04-26T16:30:28.449Z,49.60
2019-04-26T16:33:17.262Z,49.60
2019-04-26T16:35:47.093Z,49.70
2019-04-26T16:38:34.030Z,49.70
2019-04-26T16:41:03.827Z,49.60
2019-04-26T16:46:05.202Z,49.70
2019-04-26T16:48:36.524Z,49.70
2019-04-26T16:51:08.304Z,49.70
2019-04-26T16:53:52.067Z,49.80
2019-04-26T16:56:09.191Z,49.70
2019-04-26T16:58:44.935Z,49.70
2019-04-26T17:01:12.389Z,49.80
2019-04-26T17:03:45.182Z,49.70
2019-04-26T17:06:14.463Z,49.70
2019-04-26T17:08:50.008Z,49.70
2019-04-26T17:09:51.260Z,49.70
2019-04-26T17:11:16.406Z,49.60
2019-04-26T17:13:51.253Z,49.70
2019-04-26T17:16:17.723Z,49.70
2019-04-26T17:18:47.564Z,49.60
2019-04-26T17:21:23.805Z,49.50
2019-04-26T17:24:22.415Z,49.50
2019-04-26T17:26:56.965Z,49.50
2019-04-26T17:29:26.770Z,49.50
2019-04-26T17:31:56.557Z,49.60
2019-04-26T17:34:28.960Z,49.70
2019-04-26T17:36:57.857Z,49.60
2019-04-26T17:39:27.687Z,49.60
2019-04-26T17:41:57.417Z,49.60
2019-04-26T17:44:28.305Z,49.60
2019-04-26T17:47:01.549Z,49.70
2019-04-26T17:49:34.192Z,49.70
2019-04-26T17:52:02.086Z,49.70
2019-04-26T17:54:46.240Z,49.80
2019-04-26T17:57:14.564Z,49.70
2019-04-26T17:59:37.147Z,49.70
2019-04-26T18:02:25.599Z,49.70
2019-04-26T18:04:42.456Z,49.80
2019-04-26T18:07:36.215Z,50.00
2019-04-26T18:09:46.289Z,49.80
2019-04-26T18:12:14.415Z,49.80
2019-04-26T18:14:44.183Z,49.80
2019-04-26T18:17:24.786Z,49.80
2019-04-26T18:20:12.982Z,49.90
2019-04-26T18:22:46.932Z,49.80
2019-04-26T18:25:16.778Z,49.80
2019-04-26T18:27:46.545Z,49.90
2019-04-26T18:30:16.560Z,49.80
2019-04-26T18:32:47.859Z,49.90
2019-04-26T18:35:17.970Z,50.50
2019-04-26T18:37:47.720Z,49.90
2019-04-26T18:40:20.382Z,49.90
2019-04-26T18:42:48.944Z,50.00
2019-04-26T18:45:28.060Z,49.80
2019-04-26T18:47:50.167Z,49.90
2019-04-26T18:50:19.828Z,49.80
2019-04-26T18:53:08.481Z,49.80
2019-04-26T18:55:39.269Z,49.90
2019-04-26T18:58:09.027Z,50.00
2019-04-26T19:00:40.445Z,50.00
2019-04-26T19:03:10.265Z,50.10
2019-04-26T19:05:43.065Z,50.10
2019-04-26T19:08:14.820Z,50.10
2019-04-26T19:10:44.293Z,50.20
2019-04-26T19:13:46.630Z,50.20
2019-04-26T19:16:34.337Z,50.20
2019-04-26T19:19:08.987Z,50.20
2019-04-26T19:21:43.146Z,50.20
2019-04-26T19:24:19.597Z,50.10
2019-04-26T19:26:49.666Z,50.10
2019-04-26T19:29:18.506Z,50.10
2019-04-26T19:31:48.201Z,50.10
2019-04-26T19:34:18.015Z,50.20
2019-04-26T19:36:49.200Z,50.20
2019-04-26T19:39:22.454Z,50.20
2019-04-26T19:42:09.267Z,50.20
2019-04-26T19:44:39.030Z,50.30
2019-04-26T19:47:25.676Z,49.80
2019-04-26T19:50:11.460Z,50.40
2019-04-26T19:53:06.027Z,50.50
2019-04-26T19:55:51.471Z,50.50
2019-04-26T19:58:24.821Z,50.40
2019-04-26T20:00:56.769Z,50.50
2019-04-26T20:03:28.605Z,50.50
2019-04-26T20:05:58.571Z,50.50
2019-04-26T20:08:29.475Z,50.40
2019-04-26T20:11:01.321Z,50.40
2019-04-26T20:13:31.799Z,50.40
2019-04-26T20:16:05.135Z,50.40
2019-04-26T20:18:38.692Z,50.40
2019-04-26T20:21:06.632Z,50.50
2019-04-26T20:23:38.306Z,50.50
2019-04-26T20:26:09.429Z,50.40
2019-04-26T20:28:39.271Z,50.50
2019-04-26T20:31:31.546Z,50.40
2019-04-26T20:34:05.291Z,50.40
2019-04-26T20:36:33.768Z,50.60
2019-04-26T20:39:06.595Z,50.70
2019-04-26T20:41:37.287Z,51.20
2019-04-26T20:44:09.932Z,50.70
2019-04-26T20:46:39.266Z,50.60
2019-04-26T20:49:11.226Z,50.50
2019-04-26T20:51:46.068Z,50.50
2019-04-26T20:54:16.348Z,50.60
2019-04-26T20:56:46.183Z,50.60
2019-04-26T20:59:20.091Z,50.60
2019-04-26T21:02:02.680Z,50.60
2019-04-26T21:04:34.944Z,50.70
2019-04-26T21:06:53.574Z,50.60
2019-04-26T21:09:25.067Z,50.70
2019-04-26T21:11:55.274Z,50.70
2019-04-26T21:14:25.679Z,50.70
2019-04-26T21:16:55.940Z,50.70
2019-04-26T21:19:26.047Z,50.70
2019-04-26T21:21:56.287Z,50.70
2019-04-26T21:24:28.592Z,50.60
2019-04-26T21:27:15.784Z,50.60
2019-04-26T21:30:03.598Z,50.70
2019-04-26T21:32:56.046Z,50.80
2019-04-26T21:35:28.381Z,50.70
2019-04-26T21:38:07.139Z,50.70
2019-04-26T21:40:46.517Z,50.60
2019-04-26T21:43:16.795Z,50.70
2019-04-26T21:45:47.199Z,50.70
2019-04-26T21:48:18.345Z,50.70
2019-04-26T21:50:49.313Z,50.70
2019-04-26T21:53:19.439Z,50.70
2019-04-26T21:55:49.578Z,50.60
2019-04-26T21:58:21.465Z,50.70
2019-04-26T22:01:14.665Z,50.70
2019-04-26T22:03:47.393Z,50.70
2019-04-26T22:06:15.064Z,50.70
2019-04-26T22:08:59.342Z,50.80
2019-04-26T22:11:28.544Z,50.70
2019-04-26T22:14:14.781Z,50.70
2019-04-26T22:16:53.463Z,50.70
2019-04-26T22:19:43.202Z,50.90
2019-04-26T22:22:41.546Z,50.70
2019-04-26T22:25:10.606Z,50.90
2019-04-26T22:27:41.229Z,50.90
2019-04-26T22:30:17.369Z,50.90
2019-04-26T22:32:48.417Z,50.90
2019-04-26T22:35:21.460Z,50.90
2019-04-26T22:37:51.170Z,51.00
2019-04-26T22:40:23.257Z,50.80
2019-04-26T22:43:00.671Z,50.90
2019-04-26T22:45:53.898Z,50.90
2019-04-26T22:48:33.902Z,50.90
2019-04-26T22:51:04.813Z,50.90
2019-04-26T22:53:36.956Z,50.90
2019-04-26T22:56:07.306Z,51.00
2019-04-26T22:58:38.022Z,50.90
2019-04-26T23:01:09.993Z,50.90
2019-04-26T23:03:41.373Z,50.80
2019-04-26T23:06:15.199Z,50.90
2019-04-26T23:08:45.716Z,50.80
2019-04-26T23:11:16.452Z,50.90
2019-04-26T23:14:19.100Z,50.70
2019-04-26T23:17:16.253Z,50.80
2019-04-26T23:20:05.988Z,50.80
2019-04-26T23:22:36.582Z,50.90
2019-04-26T23:25:07.370Z,50.80
2019-04-26T23:27:38.355Z,50.70
2019-04-26T23:30:10.650Z,50.80
2019-04-26T23:32:41.365Z,50.80
2019-04-26T23:35:13.604Z,50.70
2019-04-26T23:37:44.283Z,50.80
2019-04-26T23:40:15.374Z,50.70
2019-04-26T23:42:47.592Z,50.90
2019-04-26T23:45:18.594Z,50.90
2019-04-26T23:47:49.504Z,50.80
2019-04-26T23:50:20.284Z,50.90
2019-04-26T23:52:53.030Z,50.90
2019-04-26T23:55:24.135Z,50.90
2019-04-26T23:57:54.710Z,50.70
